Time;durP1;ratioP1;P1;durP2;ratioP2;P2;SDS_P1;SDS_P2;PMS_P1;PMS_P2;Temp;Humidity;BMP_temperature;BMP_pressure;BME280_temperature;BME280_humidity;BME280_pressure;Samples;Min_cycle;Max_cycle;Signal;HPM_P1;HPM_P2
2022/06/17 00:01:21;;;;;;;9.67;7.80;;;;;;;17.34;nan;101996.69;5040148;28;20440;-77
2022/06/17 00:03:51;;;;;;;8.70;7.90;;;;;;;17.22;nan;101994.91;5040829;28;20405;-75
2022/06/17 00:06:18;;;;;;;8.37;7.40;;;;;;;17.27;nan;101995.81;5041309;28;20415;-75
2022/06/17 00:08:45;;;;;;;8.87;7.97;;;;;;;17.13;nan;102005.41;5040220;28;20423;-75
2022/06/17 00:11:17;;;;;;;9.40;7.40;;;;;;;17.11;nan;102002.78;5040262;28;20383;-75
2022/06/17 00:13:42;;;;;;;8.50;7.70;;;;;;;17.31;nan;101992.28;5040603;28;20379;-76
2022/06/17 00:16:12;;;;;;;7.50;6.80;;;;;;;17.19;nan;101983.50;5040920;28;20432;-77
2022/06/17 00:18:38;;;;;;;8.37;7.57;;;;;;;17.16;nan;101985.25;5041078;28;20190;-76
2022/06/17 00:21:04;;;;;;;9.13;7.87;;;;;;;17.30;nan;101989.66;5041428;28;20432;-76
2022/06/17 00:23:29;;;;;;;8.80;7.93;;;;;;;17.10;nan;101987.88;5040796;28;20477;-75
2022/06/17 00:25:55;;;;;;;9.53;8.70;;;;;;;16.82;nan;101993.00;5040790;28;20174;-75
2022/06/17 00:28:23;;;;;;;8.83;7.83;;;;;;;16.76;nan;101987.69;5041279;28;20186;-75
2022/06/17 00:30:49;;;;;;;10.83;7.80;;;;;;;16.87;nan;101990.38;5040721;28;20182;-75
2022/06/17 00:33:16;;;;;;;10.20;8.40;;;;;;;16.56;nan;101998.19;5040599;28;20396;-75
2022/06/17 00:35:45;;;;;;;9.80;8.47;;;;;;;16.72;nan;101987.69;5040347;28;20384;-78
2022/06/17 00:38:17;;;;;;;10.23;9.07;;;;;;;16.41;nan;101982.28;5040520;28;20413;-77
2022/06/17 00:40:44;;;;;;;9.20;8.30;;;;;;;16.86;nan;101979.84;5039666;28;20444;-76
2022/06/17 00:43:20;;;;;;;9.90;8.40;;;;;;;16.83;nan;101989.50;5040081;28;20427;-76
2022/06/17 00:46:01;;;;;;;14.03;8.00;;;;;;;16.99;nan;101987.84;5039605;28;20416;-76
2022/06/17 00:48:30;;;;;;;8.60;7.80;;;;;;;16.78;nan;101990.38;5040440;28;20398;-76
2022/06/17 00:51:07;;;;;;;9.27;8.20;;;;;;;16.80;nan;101997.38;5039605;28;20460;-77
2022/06/17 00:54:06;;;;;;;8.90;8.00;;;;;;;16.98;nan;101995.72;5039459;28;20412;-76
2022/06/17 00:56:34;;;;;;;10.90;9.03;;;;;;;16.65;nan;101999.97;5040692;28;20387;-77
2022/06/17 00:59:08;;;;;;;9.23;8.43;;;;;;;16.60;nan;102001.69;5041360;28;20444;-75
2022/06/17 01:02:03;;;;;;;10.30;9.20;;;;;;;16.48;nan;101995.50;5039785;28;20478;-75
2022/06/17 01:04:33;;;;;;;8.97;8.20;;;;;;;16.53;nan;102000.78;5039326;28;20431;-76
2022/06/17 01:07:03;;;;;;;9.50;8.60;;;;;;;16.56;nan;101992.00;5031740;28;20472;-76
2022/06/17 01:12:16;;;;;;;10.40;8.90;;;;;;;16.49;nan;102010.44;5039981;28;20478;-76
2022/06/17 01:14:42;;;;;;;9.17;8.37;;;;;;;16.36;nan;102000.69;5039040;28;20380;-76
2022/06/17 01:17:10;;;;;;;14.07;9.10;;;;;;;16.43;nan;102017.41;5040704;28;20614;-77
2022/06/17 01:19:42;;;;;;;13.33;8.73;;;;;;;16.56;nan;102020.97;5039709;28;20197;-76
2022/06/17 01:22:25;;;;;;;10.53;8.83;;;;;;;16.48;nan;102015.66;5039636;28;20466;-75
2022/06/17 01:24:53;;;;;;;10.63;8.83;;;;;;;16.39;nan;102013.88;5039845;28;20696;-73
2022/06/17 01:27:22;;;;;;;9.40;8.60;;;;;;;16.52;nan;102011.28;5038851;28;20468;-75
2022/06/17 01:29:47;;;;;;;10.20;9.20;;;;;;;16.12;nan;102019.84;5038978;28;20513;-75
2022/06/17 01:32:13;;;;;;;9.90;8.37;;;;;;;16.09;nan;102018.06;5040257;28;20488;-76
2022/06/17 01:34:39;;;;;;;10.90;9.50;;;;;;;15.97;nan;102024.09;5038564;28;20167;-75
2022/06/17 01:37:06;;;;;;;9.50;8.60;;;;;;;16.36;nan;102029.66;5039463;28;20162;-76
2022/06/17 01:39:32;;;;;;;9.90;8.90;;;;;;;16.19;nan;102031.28;5039182;28;20169;-76
2022/06/17 01:41:57;;;;;;;9.97;9.07;;;;;;;16.16;nan;102019.84;5038601;28;20448;-75
2022/06/17 01:44:33;;;;;;;10.50;9.60;;;;;;;16.54;nan;102022.72;5039269;28;20544;-74
2022/06/17 01:47:01;;;;;;;13.27;9.00;;;;;;;16.35;nan;102022.63;5038849;28;20592;-74
2022/06/17 01:49:31;;;;;;;10.00;9.00;;;;;;;16.18;nan;102027.75;5038601;28;20834;-76
2022/06/17 01:51:59;;;;;;;12.40;9.83;;;;;;;16.30;nan;102024.34;5039051;28;20400;-75
2022/06/17 01:54:28;;;;;;;9.47;8.50;;;;;;;16.35;nan;102021.75;5038385;28;20426;-75
2022/06/17 01:56:55;;;;;;;10.97;9.87;;;;;;;16.49;nan;102022.69;5039195;28;20454;-75
2022/06/17 01:59:26;;;;;;;12.73;9.47;;;;;;;16.12;nan;102019.84;5038970;28;20404;-75
2022/06/17 02:01:55;;;;;;;11.67;10.57;;;;;;;16.16;nan;102024.25;5038281;28;20472;-75
2022/06/17 02:04:25;;;;;;;10.50;9.50;;;;;;;16.13;nan;102027.72;5039048;28;20816;-74
2022/06/17 02:06:56;;;;;;;11.30;10.13;;;;;;;15.83;nan;102023.13;5037777;28;20401;-75
2022/06/17 02:09:21;;;;;;;11.33;10.10;;;;;;;15.94;nan;102018.81;5038418;28;20412;-74
2022/06/17 02:11:47;;;;;;;11.10;10.10;;;;;;;15.74;nan;102038.78;5039332;28;20783;-76
2022/06/17 02:14:13;;;;;;;10.40;9.43;;;;;;;15.93;nan;102031.97;5038071;28;20173;-77
2022/06/17 02:16:41;;;;;;;11.80;10.60;;;;;;;16.00;nan;102033.78;5038921;28;20388;-75
2022/06/17 02:19:07;;;;;;;12.27;11.10;;;;;;;15.89;nan;102040.69;5039041;28;20176;-77
2022/06/17 02:21:36;;;;;;;13.03;11.83;;;;;;;15.89;nan;102031.06;5037836;28;20475;-77
2022/06/17 02:24:03;;;;;;;13.20;12.00;;;;;;;15.81;nan;102033.59;5037894;28;20166;-76
2022/06/17 02:26:31;;;;;;;11.37;10.37;;;;;;;15.73;nan;102035.25;5039168;28;20384;-77
2022/06/17 02:28:56;;;;;;;15.13;11.93;;;;;;;15.75;nan;102036.16;5037809;28;20437;-77
2022/06/17 02:31:22;;;;;;;12.20;11.10;;;;;;;15.48;nan;102035.03;5038463;28;20661;-75
2022/06/17 02:33:49;;;;;;;14.57;10.97;;;;;;;15.61;nan;102033.41;5038100;28;20486;-76
2022/06/17 02:36:20;;;;;;;12.20;11.10;;;;;;;15.71;nan;102036.09;5038531;28;20174;-75
2022/06/17 02:38:46;;;;;;;14.23;11.70;;;;;;;15.74;nan;102026.50;5037706;28;20417;-73
2022/06/17 02:41:16;;;;;;;14.07;11.07;;;;;;;15.81;nan;102017.81;5038745;28;20416;-74
2022/06/17 02:43:48;;;;;;;12.37;11.20;;;;;;;15.69;nan;102017.69;5037967;28;20296;-74
2022/06/17 02:46:16;;;;;;;13.23;12.03;;;;;;;15.48;nan;102010.50;5038243;28;20417;-74
2022/06/17 02:48:53;;;;;;;13.43;12.07;;;;;;;15.42;nan;102013.06;5037534;28;20395;-75
2022/06/17 02:51:19;;;;;;;12.93;11.70;;;;;;;15.28;nan;102012.94;5037504;28;20486;-75
2022/06/17 02:53:44;;;;;;;11.87;10.77;;;;;;;15.46;nan;102017.47;5037421;28;20387;-74
2022/06/17 02:56:20;;;;;;;13.43;12.10;;;;;;;15.47;nan;102016.63;5038315;28;20221;-73
2022/06/17 02:59:30;;;;;;;12.73;11.43;;;;;;;15.44;nan;102017.47;5037391;28;20174;-75
2022/06/17 03:01:58;;;;;;;13.13;11.80;;;;;;;15.66;nan;102022.94;5014886;28;20472;-74
2022/06/17 03:04:27;;;;;;;13.53;12.23;;;;;;;15.46;nan;102020.97;5037377;28;20396;-75
2022/06/17 03:06:52;;;;;;;15.10;11.00;;;;;;;15.49;nan;102021.03;5038234;28;20397;-75
2022/06/17 03:09:24;;;;;;;19.53;12.00;;;;;;;15.24;nan;102013.75;5037878;28;20384;-74
2022/06/17 03:12:00;;;;;;;13.87;12.37;;;;;;;15.36;nan;102019.13;5037386;28;20481;-76
2022/06/17 03:14:30;;;;;;;13.87;12.30;;;;;;;15.40;nan;102020.94;5038206;28;20401;-75
2022/06/17 03:17:00;;;;;;;12.93;11.73;;;;;;;15.38;nan;102021.78;5037338;28;20404;-74
2022/06/17 03:19:27;;;;;;;14.80;13.27;;;;;;;15.31;nan;102012.94;5041441;28;20431;-76
2022/06/17 03:21:52;;;;;;;15.47;12.10;;;;;;;15.21;nan;102017.22;5042444;28;20472;-75
2022/06/17 03:25:04;;;;;;;13.10;12.00;;;;;;;15.48;nan;102011.38;5041597;28;20455;-75
2022/06/17 03:27:49;;;;;;;12.87;11.67;;;;;;;15.69;nan;102016.81;5041257;28;20198;-76
2022/06/17 03:30:22;;;;;;;13.93;12.63;;;;;;;15.51;nan;102018.41;5042278;28;20602;-78
2022/06/17 03:32:52;;;;;;;12.43;11.10;;;;;;;15.68;nan;102013.28;5041369;28;20526;-76
2022/06/17 03:35:22;;;;;;;12.23;11.17;;;;;;;16.05;nan;102015.38;5041193;28;20825;-76
2022/06/17 03:37:51;;;;;;;10.90;10.00;;;;;;;17.34;nan;102009.88;5041120;28;20424;-75
2022/06/17 03:40:32;;;;;;;12.67;10.50;;;;;;;18.24;nan;102004.63;5041670;28;20394;-75
2022/06/17 03:43:03;;;;;;;10.60;9.60;;;;;;;18.59;nan;102003.63;5040961;28;20449;-74
2022/06/17 03:45:56;;;;;;;10.77;9.63;;;;;;;18.91;nan;102002.66;5041795;28;20424;-75
2022/06/17 03:48:29;;;;;;;10.40;9.33;;;;;;;18.85;nan;101998.28;5041034;28;20391;-77
2022/06/17 03:50:55;;;;;;;10.37;9.50;;;;;;;19.62;nan;102005.75;5041016;28;20417;-78
2022/06/17 03:53:23;;;;;;;11.67;8.77;;;;;;;20.28;nan;102000.75;5041441;28;20398;-77
2022/06/17 03:55:51;;;;;;;10.53;9.30;;;;;;;20.94;nan;101999.13;5041561;28;20201;-76
2022/06/17 03:58:18;;;;;;;10.10;8.60;;;;;;;20.20;nan;101995.53;5041226;28;20734;-76
2022/06/17 04:00:46;;;;;;;11.50;8.67;;;;;;;20.39;nan;101998.88;5040509;28;20474;-74
2022/06/17 04:03:20;;;;;;;9.70;8.80;;;;;;;21.07;nan;101997.16;5040928;28;20468;-74
2022/06/17 04:06:09;;;;;;;9.73;8.80;;;;;;;21.03;nan;101991.03;5040421;28;20415;-74
2022/06/17 04:08:55;;;;;;;9.60;8.70;;;;;;;20.60;nan;101994.22;5040929;28;20722;-74
2022/06/17 04:11:23;;;;;;;10.70;9.00;;;;;;;20.72;nan;101996.75;5041047;28;20854;-74
2022/06/17 04:13:48;;;;;;;9.90;9.10;;;;;;;20.95;nan;101996.44;5041032;28;20431;-74
2022/06/17 04:16:41;;;;;;;9.30;8.50;;;;;;;21.44;nan;101993.97;5044701;28;20409;-74
2022/06/17 04:19:16;;;;;;;10.10;9.17;;;;;;;21.81;nan;102004.00;5043382;28;20253;-75
2022/06/17 04:21:41;;;;;;;10.20;9.20;;;;;;;20.72;nan;102004.69;5040867;28;20952;-75
2022/06/17 04:24:18;;;;;;;9.50;8.70;;;;;;;21.14;nan;101997.06;5040938;28;20441;-75
2022/06/17 04:26:45;;;;;;;10.57;9.47;;;;;;;21.07;nan;101995.41;5041102;28;20174;-76
2022/06/17 04:29:15;;;;;;;9.20;8.40;;;;;;;19.97;nan;101999.31;5039686;28;20455;-74
2022/06/17 04:31:42;;;;;;;10.40;9.50;;;;;;;20.59;nan;102005.72;5039604;28;20424;-74
2022/06/17 04:34:15;;;;;;;10.37;9.57;;;;;;;21.01;nan;101995.47;5039664;28;20413;-74
2022/06/17 04:36:59;;;;;;;10.63;9.33;;;;;;;21.65;nan;101993.66;5040754;28;20448;-73
2022/06/17 04:39:30;;;;;;;10.27;9.33;;;;;;;22.52;nan;101989.44;5040690;28;20432;-75
2022/06/17 04:42:00;;;;;;;9.53;8.73;;;;;;;22.49;nan;101989.50;5039781;28;20566;-74
2022/06/17 04:44:26;;;;;;;10.90;9.90;;;;;;;22.84;nan;101993.19;5040562;28;20492;-74
2022/06/17 04:46:55;;;;;;;10.00;8.53;;;;;;;22.79;nan;101992.44;5040668;28;20502;-74
2022/06/17 04:49:22;;;;;;;9.83;9.03;;;;;;;22.25;nan;101997.00;5039819;28;20170;-76
2022/06/17 04:51:49;;;;;;;10.47;9.57;;;;;;;22.86;nan;101994.03;5041088;28;20423;-76
2022/06/17 04:54:15;;;;;;;9.73;8.73;;;;;;;23.74;nan;101992.00;5039965;28;20413;-75
2022/06/17 04:56:45;;;;;;;10.40;9.50;;;;;;;23.41;nan;101997.25;5040439;28;20414;-76
2022/06/17 04:59:37;;;;;;;10.17;9.30;;;;;;;23.32;nan;101992.16;5041331;28;20463;-76
2022/06/17 05:02:07;;;;;;;10.77;9.87;;;;;;;23.88;nan;101992.56;5040002;28;20571;-74
2022/06/17 05:04:32;;;;;;;11.03;9.93;;;;;;;24.03;nan;101987.72;5038503;28;20429;-76
2022/06/17 05:06:58;;;;;;;9.93;9.03;;;;;;;24.51;nan;101989.91;5039475;28;20431;-75
2022/06/17 05:09:34;;;;;;;10.37;9.43;;;;;;;24.87;nan;101987.13;5039551;28;20178;-76
2022/06/17 05:12:04;;;;;;;10.10;9.10;;;;;;;24.59;nan;102004.84;5039453;28;20184;-75
2022/06/17 05:14:47;;;;;;;9.97;9.10;;;;;;;24.95;nan;102004.69;5039785;28;20464;-75
2022/06/17 05:17:12;;;;;;;9.47;8.67;;;;;;;24.39;nan;102006.28;5072056;28;20428;-75
2022/06/17 05:19:38;;;;;;;9.73;9.03;;;;;;;24.65;nan;102016.25;5039785;28;20421;-75
2022/06/17 05:22:11;;;;;;;8.90;8.10;;;;;;;25.45;nan;102012.03;5039932;28;20563;-74
2022/06/17 05:24:36;;;;;;;9.33;8.50;;;;;;;24.93;nan;102023.41;5039639;28;20356;-75
2022/06/17 05:27:02;;;;;;;8.83;7.93;;;;;;;25.25;nan;102008.19;5039775;28;20472;-74
2022/06/17 05:29:27;;;;;;;9.13;8.33;;;;;;;24.79;nan;102018.50;5039798;28;20175;-74
2022/06/17 05:31:53;;;;;;;8.30;7.60;;;;;;;24.59;nan;102012.84;5039301;28;20178;-75
2022/06/17 05:34:19;;;;;;;10.47;7.83;;;;;;;25.16;nan;102008.47;5038663;28;20197;-75
2022/06/17 05:36:44;;;;;;;7.50;6.80;;;;;;;25.24;nan;102013.59;5038911;28;20425;-75
2022/06/17 05:39:10;;;;;;;7.70;7.00;;;;;;;25.35;nan;102019.47;5038695;28;20193;-77
2022/06/17 05:41:35;;;;;;;7.57;6.87;;;;;;;24.97;nan;102011.72;5034026;28;20254;-78
2022/06/17 05:44:00;;;;;;;8.30;7.60;;;;;;;26.08;nan;102006.41;5022750;28;20174;-76
2022/06/17 05:46:27;;;;;;;7.73;7.03;;;;;;;26.08;nan;102007.25;5039180;28;20163;-78
2022/06/17 05:48:52;;;;;;;7.03;6.43;;;;;;;25.32;nan;102000.88;5039093;28;20167;-78
2022/06/17 05:51:17;;;;;;;7.60;6.90;;;;;;;25.89;nan;102005.19;5038959;28;20426;-77
2022/06/17 05:53:43;;;;;;;7.73;6.73;;;;;;;25.60;nan;102008.88;5038825;28;20181;-75
2022/06/17 05:56:08;;;;;;;8.27;7.47;;;;;;;26.62;nan;102004.44;5071265;28;20167;-76
2022/06/17 05:58:34;;;;;;;10.57;7.20;;;;;;;26.54;nan;102005.56;5021764;28;20179;-77
2022/06/17 06:00:59;;;;;;;7.33;6.63;;;;;;;27.12;nan;102009.63;5018883;28;20580;-76
2022/06/17 06:03:27;;;;;;;7.47;6.70;;;;;;;26.72;nan;102006.72;5018596;28;20541;-77
2022/06/17 06:05:53;;;;;;;7.00;6.40;;;;;;;27.78;nan;102006.06;5019510;28;20537;-76
2022/06/17 06:08:19;;;;;;;9.30;6.60;;;;;;;27.43;nan;102003.06;5051497;28;20418;-76
2022/06/17 06:10:44;;;;;;;7.70;6.90;;;;;;;27.43;nan;102005.75;5019052;28;20178;-78
2022/06/17 06:13:19;;;;;;;7.93;7.13;;;;;;;27.62;nan;102008.53;5018690;28;20237;-75
2022/06/17 06:15:46;;;;;;;7.57;6.80;;;;;;;27.92;nan;102010.81;5069861;28;20276;-75
2022/06/17 06:18:18;;;;;;;7.33;6.60;;;;;;;27.23;nan;102011.88;5038698;28;20413;-75
2022/06/17 06:20:44;;;;;;;6.90;6.30;;;;;;;27.89;nan;102017.19;5038571;28;20409;-75
2022/06/17 06:23:09;;;;;;;9.13;6.40;;;;;;;26.96;nan;102011.19;5038624;28;20471;-76
2022/06/17 06:25:35;;;;;;;6.90;6.13;;;;;;;28.35;nan;102018.81;5039132;28;20535;-75
2022/06/17 06:28:16;;;;;;;7.00;6.40;;;;;;;28.38;nan;102013.31;5037691;28;20175;-75
2022/06/17 06:30:41;;;;;;;9.10;6.20;;;;;;;27.70;nan;102011.75;5037803;28;20558;-76
2022/06/17 06:33:09;;;;;;;7.30;6.10;;;;;;;28.16;nan;102022.31;5038285;28;20516;-75
2022/06/17 06:35:37;;;;;;;6.70;6.10;;;;;;;28.00;nan;102023.91;5038375;28;20257;-75
2022/06/17 06:38:03;;;;;;;6.53;5.70;;;;;;;28.51;nan;102022.53;5038758;28;20413;-75
2022/06/17 06:40:29;;;;;;;6.93;6.10;;;;;;;28.03;nan;102026.47;5038314;28;20433;-74
2022/06/17 06:42:55;;;;;;;12.27;6.40;;;;;;;27.46;nan;102029.72;5038313;28;20850;-73
2022/06/17 06:45:29;;;;;;;15.47;7.07;;;;;;;28.67;nan;102025.44;5038681;28;20163;-73
2022/06/17 06:47:57;;;;;;;7.00;6.40;;;;;;;28.27;nan;102026.34;5037300;28;20420;-74
2022/06/17 06:50:24;;;;;;;6.90;6.20;;;;;;;28.97;nan;102026.72;5038133;28;20443;-75
2022/06/17 06:52:50;;;;;;;7.93;5.87;;;;;;;28.56;nan;102033.94;5037876;28;20811;-75
2022/06/17 06:55:16;;;;;;;11.20;6.40;;;;;;;27.97;nan;102034.72;5038329;28;20512;-75
2022/06/17 06:57:58;;;;;;;17.17;6.43;;;;;;;29.93;nan;102022.94;5037670;28;20260;-74
2022/06/17 07:00:27;;;;;;;6.67;6.00;;;;;;;28.23;nan;102026.47;5037844;28;20265;-74
2022/06/17 07:02:53;;;;;;;6.50;5.90;;;;;;;28.93;nan;102027.81;5053409;28;20913;-73
2022/06/17 07:05:20;;;;;;;5.93;5.50;;;;;;;28.31;nan;102019.91;5037236;28;20490;-76
2022/06/17 07:07:46;;;;;;;7.30;5.90;;;;;;;28.12;nan;102020.72;5037856;28;20425;-75
2022/06/17 07:10:16;;;;;;;6.27;5.67;;;;;;;28.30;nan;102018.16;5038547;28;20178;-75
2022/06/17 07:12:41;;;;;;;6.50;5.87;;;;;;;29.57;nan;102005.88;5037754;28;20888;-74
2022/06/17 07:15:08;;;;;;;8.63;5.30;;;;;;;28.60;nan;102009.63;5037773;28;20436;-75
2022/06/17 07:17:33;;;;;;;7.80;5.47;;;;;;;29.22;nan;102000.41;5038082;28;20178;-75
2022/06/17 07:19:58;;;;;;;7.27;5.80;;;;;;;28.89;nan;102000.25;5037024;28;20424;-75
2022/06/17 07:22:24;;;;;;;6.77;6.10;;;;;;;29.67;nan;101994.66;5037584;28;20206;-73
2022/06/17 07:24:49;;;;;;;9.97;6.10;;;;;;;29.33;nan;101996.38;5038653;28;20177;-75
2022/06/17 07:27:15;;;;;;;6.57;5.60;;;;;;;30.37;nan;101994.59;5037988;28;20456;-77
2022/06/17 07:29:40;;;;;;;6.90;6.20;;;;;;;30.71;nan;101992.78;5038524;28;20447;-75
2022/06/17 07:32:06;;;;;;;7.03;6.33;;;;;;;30.71;nan;101993.63;5038363;28;20167;-77
2022/06/17 07:34:32;;;;;;;6.40;5.80;;;;;;;29.92;nan;101996.09;5037497;28;20525;-76
2022/06/17 07:39:57;;;;;;;6.63;5.13;;;;;;;30.43;nan;101994.25;5037523;28;20240;-74
2022/06/17 07:42:26;;;;;;;5.40;5.00;;;;;;;29.70;nan;101992.69;5037491;28;20538;-76
2022/06/17 07:44:52;;;;;;;6.50;5.90;;;;;;;31.26;nan;101983.41;5037553;28;20413;-71
2022/06/17 07:47:20;;;;;;;7.33;5.67;;;;;;;30.32;nan;101985.91;5037415;28;20413;-72
2022/06/17 07:49:45;;;;;;;6.23;5.63;;;;;;;31.43;nan;101984.22;5037747;28;20652;-72
2022/06/17 07:52:11;;;;;;;6.60;5.87;;;;;;;30.13;nan;101983.34;5037333;28;20492;-75
2022/06/17 07:54:36;;;;;;;7.10;5.60;;;;;;;31.48;nan;101991.06;5037411;28;20257;-74
2022/06/17 07:57:02;;;;;;;7.57;5.67;;;;;;;30.12;nan;101979.81;5038039;28;20170;-74
2022/06/17 07:59:28;;;;;;;6.30;5.60;;;;;;;30.57;nan;101980.94;5037832;28;20174;-77
2022/06/17 08:01:53;;;;;;;11.37;6.00;;;;;;;31.15;nan;101980.44;5037274;28;20310;-74
2022/06/17 08:04:18;;;;;;;6.23;4.70;;;;;;;30.29;nan;101980.69;5038081;28;20261;-77
2022/06/17 08:06:49;;;;;;;8.60;5.10;;;;;;;30.88;nan;101979.22;5041548;28;20178;-78
2022/06/17 08:09:16;;;;;;;6.73;5.17;;;;;;;30.21;nan;101976.59;5041328;28;20174;-77
2022/06/17 08:11:41;;;;;;;7.50;5.07;;;;;;;31.34;nan;101973.03;5041661;28;20397;-76
2022/06/17 08:14:07;;;;;;;5.37;4.87;;;;;;;29.85;nan;101983.00;5041257;28;20451;-75
2022/06/17 08:16:32;;;;;;;6.47;5.03;;;;;;;30.59;nan;101982.69;5041359;28;20470;-76
2022/06/17 08:18:58;;;;;;;6.13;5.53;;;;;;;31.00;nan;101972.28;5041581;28;20162;-76
2022/06/17 08:21:23;;;;;;;5.70;5.17;;;;;;;32.67;nan;101975.72;5040901;28;20209;-76
2022/06/17 08:23:48;;;;;;;5.17;4.67;;;;;;;30.99;nan;101957.06;5040646;28;20233;-76
2022/06/17 08:26:14;;;;;;;6.83;5.00;;;;;;;31.07;nan;101956.66;5040387;28;20407;-73
2022/06/17 08:28:39;;;;;;;10.70;4.93;;;;;;;30.73;nan;101953.19;5040621;28;20224;-74
2022/06/17 08:31:05;;;;;;;4.83;4.50;;;;;;;30.87;nan;101963.16;5040706;28;20467;-74
2022/06/17 08:33:30;;;;;;;6.30;4.87;;;;;;;32.30;nan;101958.31;5040306;28;20159;-74
2022/06/17 08:36:04;;;;;;;5.27;4.87;;;;;;;31.57;nan;101942.00;5040760;28;20173;-73
2022/06/17 08:38:34;;;;;;;5.97;5.47;;;;;;;30.43;nan;101945.81;5040944;28;20548;-73
2022/06/17 08:41:07;;;;;;;10.00;5.40;;;;;;;29.64;nan;101952.69;5041093;28;20416;-73
2022/06/17 08:43:51;;;;;;;5.67;5.17;;;;;;;29.66;nan;101950.81;5040571;28;20463;-75
2022/06/17 08:46:23;;;;;;;7.50;5.83;;;;;;;28.55;nan;101966.91;5040786;28;20405;-74
2022/06/17 08:49:08;;;;;;;7.20;5.07;;;;;;;28.08;nan;101951.19;5040513;28;20417;-74
2022/06/17 08:51:39;;;;;;;11.00;6.10;;;;;;;28.04;nan;101956.69;5040892;28;20466;-74
2022/06/17 08:54:30;;;;;;;4.90;4.50;;;;;;;26.98;nan;101961.13;5040315;28;20417;-74
2022/06/17 08:57:17;;;;;;;8.47;6.37;;;;;;;27.71;nan;101959.91;4999907;28;20405;-73
2022/06/17 09:00:00;;;;;;;5.23;4.73;;;;;;;27.78;nan;101960.50;5040143;28;20433;-74
2022/06/17 09:02:39;;;;;;;7.13;5.10;;;;;;;27.87;nan;101965.47;5040116;28;20480;-74
2022/06/17 09:05:14;;;;;;;6.73;5.03;;;;;;;27.72;nan;101968.81;5040217;28;20445;-74
2022/06/17 09:07:42;;;;;;;7.80;5.30;;;;;;;28.01;nan;101967.56;5039733;28;20418;-75
2022/06/17 09:10:44;;;;;;;7.30;5.33;;;;;;;26.97;nan;101968.28;5040231;28;20482;-74
2022/06/17 09:13:57;;;;;;;9.50;5.47;;;;;;;27.35;nan;101965.00;5039902;28;20439;-74
2022/06/17 09:16:44;;;;;;;6.40;5.53;;;;;;;28.12;nan;101960.84;4979705;28;20478;-78
2022/06/17 09:19:13;;;;;;;6.13;5.20;;;;;;;28.75;nan;101962.47;5036246;28;20434;-77
2022/06/17 09:21:51;;;;;;;6.93;5.60;;;;;;;28.36;nan;101961.53;5039411;28;20417;-78
2022/06/17 09:24:20;;;;;;;6.80;6.30;;;;;;;28.92;nan;101954.47;5040627;28;20424;-74
2022/06/17 09:26:51;;;;;;;6.00;5.50;;;;;;;27.70;nan;101957.31;5038905;28;20417;-75
2022/06/17 09:29:22;;;;;;;7.37;6.67;;;;;;;29.72;nan;101952.28;5039562;28;20798;-75
2022/06/17 09:32:05;;;;;;;7.30;5.77;;;;;;;29.77;nan;101944.88;5040050;28;20428;-77
2022/06/17 09:34:56;;;;;;;8.60;5.70;;;;;;;28.71;nan;101951.00;5039205;28;20416;-76
2022/06/17 09:37:34;;;;;;;6.33;5.73;;;;;;;29.25;nan;101959.13;5029168;28;20444;-77
2022/06/17 09:40:06;;;;;;;10.73;6.20;;;;;;;27.97;nan;101955.22;5039059;28;20882;-75
2022/06/17 09:42:45;;;;;;;6.10;5.60;;;;;;;28.10;nan;101944.81;5038533;28;20481;-74
2022/06/17 09:45:13;;;;;;;6.33;5.80;;;;;;;28.35;nan;101954.44;5039358;28;20833;-72
2022/06/17 09:47:43;;;;;;;6.07;5.47;;;;;;;27.26;nan;101957.34;5038999;28;20461;-72
2022/06/17 09:50:29;;;;;;;6.20;5.67;;;;;;;27.80;nan;101957.75;5039481;28;20427;-71
2022/06/17 09:52:57;;;;;;;6.23;5.63;;;;;;;27.75;nan;101960.63;5039637;28;20451;-72
2022/06/17 09:55:28;;;;;;;8.13;5.93;;;;;;;26.98;nan;101969.16;5038993;28;20413;-71
2022/06/17 09:58:21;;;;;;;5.83;5.13;;;;;;;27.13;nan;101965.88;5039340;28;20705;-72
2022/06/17 10:00:50;;;;;;;6.53;5.93;;;;;;;27.35;nan;101952.47;5029192;28;20429;-72
2022/06/17 10:03:25;;;;;;;6.40;5.80;;;;;;;27.52;nan;101953.59;5055073;28;20664;-71
2022/06/17 10:06:02;;;;;;;6.20;5.60;;;;;;;28.07;nan;101953.03;5039382;28;20420;-72
2022/06/17 10:08:57;;;;;;;6.50;6.00;;;;;;;28.56;nan;101956.13;5039395;28;20409;-72
2022/06/17 10:11:34;;;;;;;10.50;9.23;;;;;;;28.52;nan;101959.00;5039632;28;20417;-72
2022/06/17 10:14:08;;;;;;;7.20;6.50;;;;;;;28.36;nan;101954.38;5038953;28;20408;-73
2022/06/17 10:19:45;;;;;;;8.93;7.10;;;;;;;27.77;nan;101960.59;5040302;28;20568;-77
2022/06/17 10:22:34;;;;;;;7.67;6.70;;;;;;;27.61;nan;101971.94;5038471;28;20460;-72
2022/06/17 10:25:33;;;;;;;6.60;6.10;;;;;;;27.45;nan;101958.34;5041139;28;20431;-73
2022/06/17 10:28:18;;;;;;;9.20;7.63;;;;;;;28.12;nan;101950.13;5039413;28;20435;-76
2022/06/17 10:30:50;;;;;;;8.40;6.80;;;;;;;28.54;nan;101949.09;4999181;28;20543;-74
2022/06/17 10:33:16;;;;;;;7.30;6.60;;;;;;;28.31;nan;101951.03;5043430;28;20493;-75
2022/06/17 10:35:43;;;;;;;7.73;7.03;;;;;;;27.55;nan;101951.66;5041868;28;20693;-75
2022/06/17 10:38:18;;;;;;;9.27;7.30;;;;;;;28.23;nan;101946.00;5040912;28;20412;-75
2022/06/17 10:40:43;;;;;;;7.53;6.17;;;;;;;28.56;nan;101941.84;5040807;28;20419;-73
2022/06/17 10:43:30;;;;;;;8.07;7.30;;;;;;;29.07;nan;101934.06;5039644;28;20500;-72
2022/06/17 10:45:56;;;;;;;7.43;6.40;;;;;;;28.34;nan;101944.66;5039215;28;20175;-72
2022/06/17 10:48:47;;;;;;;9.43;6.47;;;;;;;28.09;nan;101943.13;5040249;28;20479;-74
2022/06/17 10:51:13;;;;;;;6.87;6.23;;;;;;;28.08;nan;101946.72;5038654;28;20212;-71
2022/06/17 10:53:50;;;;;;;11.40;7.10;;;;;;;27.87;nan;101938.69;5041316;28;20417;-72
2022/06/17 10:56:26;;;;;;;7.20;6.30;;;;;;;27.68;nan;101940.41;5041496;28;20439;-73
2022/06/17 10:59:11;;;;;;;9.40;5.83;;;;;;;27.23;nan;101929.75;5041471;28;20445;-73
2022/06/17 11:01:45;;;;;;;8.63;6.13;;;;;;;27.73;nan;101933.03;5042134;28;20464;-72
2022/06/17 11:04:17;;;;;;;6.23;5.63;;;;;;;27.75;nan;101928.47;5044136;28;20435;-72
2022/06/17 11:06:48;;;;;;;6.03;5.53;;;;;;;27.76;nan;101924.88;5041156;28;20454;-73
2022/06/17 11:09:31;;;;;;;11.43;6.63;;;;;;;27.39;nan;101935.38;5043127;28;20445;-73
2022/06/17 11:12:10;;;;;;;6.90;6.30;;;;;;;27.32;nan;101932.97;5041959;28;20424;-71
2022/06/17 11:14:44;;;;;;;11.97;8.10;;;;;;;26.97;nan;101936.19;5041820;28;20421;-73
2022/06/17 11:17:34;;;;;;;7.03;6.23;;;;;;;26.88;nan;101921.34;5044002;28;20672;-74
2022/06/17 11:20:07;;;;;;;8.43;6.27;;;;;;;27.25;nan;101920.78;5042972;28;20415;-77
2022/06/17 11:22:37;;;;;;;7.90;6.40;;;;;;;27.01;nan;101920.88;5044658;28;20794;-74
2022/06/17 11:25:11;;;;;;;7.40;5.90;;;;;;;27.57;nan;101914.09;5046110;28;20425;-76
2022/06/17 11:27:43;;;;;;;5.80;5.30;;;;;;;26.73;nan;101921.97;5043241;28;20428;-74
2022/06/17 11:30:30;;;;;;;6.37;5.77;;;;;;;27.75;nan;101920.44;5040363;28;20452;-73
2022/06/17 11:32:57;;;;;;;8.20;6.00;;;;;;;27.51;nan;101930.44;5040568;28;20421;-72
2022/06/17 11:35:35;;;;;;;5.80;5.30;;;;;;;27.26;nan;101925.22;5040047;28;20431;-72
2022/06/17 11:38:02;;;;;;;5.90;5.43;;;;;;;27.08;nan;101927.72;5038249;28;20527;-75
2022/06/17 11:40:32;;;;;;;5.83;5.20;;;;;;;27.74;nan;101921.41;5040801;28;20417;-74
2022/06/17 11:43:03;;;;;;;6.70;5.80;;;;;;;27.22;nan;101920.00;5041992;28;20460;-73
2022/06/17 11:45:32;;;;;;;5.97;5.40;;;;;;;27.69;nan;101915.38;5042229;28;20425;-74
2022/06/17 11:48:12;;;;;;;7.60;5.23;;;;;;;27.34;nan;101918.59;5044671;28;20760;-72
2022/06/17 11:50:41;;;;;;;6.30;5.70;;;;;;;26.92;nan;101924.78;5044829;28;20416;-73
2022/06/17 11:53:12;;;;;;;5.70;5.20;;;;;;;27.10;nan;101922.28;5045807;28;20826;-74
2022/06/17 11:55:43;;;;;;;7.63;5.60;;;;;;;28.18;nan;101920.34;5048518;28;20425;-76
2022/06/17 11:58:10;;;;;;;7.57;5.70;;;;;;;28.16;nan;101917.75;5050941;28;20423;-76
2022/06/17 12:00:53;;;;;;;7.17;6.47;;;;;;;27.97;nan;101925.72;5047159;28;20425;-76
2022/06/17 12:03:33;;;;;;;7.03;6.43;;;;;;;27.81;nan;101917.50;5047800;28;20468;-75
2022/06/17 12:06:03;;;;;;;6.40;5.90;;;;;;;27.22;nan;101925.34;5047398;28;20503;-75